sensor_id;sensor_type;location;lat;lon;timestamp;P1;durP1;ratioP1;P2;durP2;ratioP2
66298;SDS011;53098;47.658;8.578;2023-03-14T00:02:04;1.33;;;0.40;;
66298;SDS011;53098;47.658;8.578;2023-03-14T00:04:30;0.73;;;0.40;;
66298;SDS011;53098;47.658;8.578;2023-03-14T00:06:55;1.45;;;0.55;;
66298;SDS011;53098;47.658;8.578;2023-03-14T00:09:20;1.60;;;0.43;;
66298;SDS011;53098;47.658;8.578;2023-03-14T00:11:46;1.03;;;0.40;;
66298;SDS011;53098;47.658;8.578;2023-03-14T00:14:11;1.85;;;0.60;;
66298;SDS011;53098;47.658;8.578;2023-03-14T00:16:36;2.40;;;0.57;;
66298;SDS011;53098;47.658;8.578;2023-03-14T00:19:01;3.10;;;0.67;;
66298;SDS011;53098;47.658;8.578;2023-03-14T00:21:27;2.10;;;0.40;;
66298;SDS011;53098;47.658;8.578;2023-03-14T00:23:52;1.73;;;0.90;;
66298;SDS011;53098;47.658;8.578;2023-03-14T00:26:18;2.05;;;0.70;;
66298;SDS011;53098;47.658;8.578;2023-03-14T00:28:44;2.63;;;0.50;;
66298;SDS011;53098;47.658;8.578;2023-03-14T00:31:11;1.40;;;0.30;;
66298;SDS011;53098;47.658;8.578;2023-03-14T00:33:37;1.27;;;0.40;;
66298;SDS011;53098;47.658;8.578;2023-03-14T00:36:12;0.87;;;0.40;;
66298;SDS011;53098;47.658;8.578;2023-03-14T00:38:38;0.68;;;0.30;;
66298;SDS011;53098;47.658;8.578;2023-03-14T00:41:05;0.20;;;0.20;;
66298;SDS011;53098;47.658;8.578;2023-03-14T00:43:30;0.57;;;0.30;;
66298;SDS011;53098;47.658;8.578;2023-03-14T00:45:56;1.23;;;0.27;;
66298;SDS011;53098;47.658;8.578;2023-03-14T00:48:21;0.70;;;0.50;;
66298;SDS011;53098;47.658;8.578;2023-03-14T00:50:46;2.10;;;0.67;;
66298;SDS011;53098;47.658;8.578;2023-03-14T00:53:12;0.73;;;0.60;;
66298;SDS011;53098;47.658;8.578;2023-03-14T00:55:38;1.05;;;0.40;;
66298;SDS011;53098;47.658;8.578;2023-03-14T00:58:03;1.40;;;0.35;;
66298;SDS011;53098;47.658;8.578;2023-03-14T01:00:28;1.60;;;0.40;;
66298;SDS011;53098;47.658;8.578;2023-03-14T01:02:54;0.43;;;0.20;;
66298;SDS011;53098;47.658;8.578;2023-03-14T01:05:19;0.63;;;0.32;;
66298;SDS011;53098;47.658;8.578;2023-03-14T01:07:46;0.52;;;0.30;;
66298;SDS011;53098;47.658;8.578;2023-03-14T01:10:11;1.13;;;0.30;;
66298;SDS011;53098;47.658;8.578;2023-03-14T01:12:36;0.83;;;0.43;;
66298;SDS011;53098;47.658;8.578;2023-03-14T01:15:02;0.28;;;0.20;;
66298;SDS011;53098;47.658;8.578;2023-03-14T01:17:27;0.30;;;0.20;;
66298;SDS011;53098;47.658;8.578;2023-03-14T01:19:52;2.90;;;0.40;;
66298;SDS011;53098;47.658;8.578;2023-03-14T01:22:18;2.80;;;0.50;;
66298;SDS011;53098;47.658;8.578;2023-03-14T01:24:43;0.50;;;0.37;;
66298;SDS011;53098;47.658;8.578;2023-03-14T01:27:08;0.30;;;0.27;;
66298;SDS011;53098;47.658;8.578;2023-03-14T01:29:34;0.37;;;0.27;;
66298;SDS011;53098;47.658;8.578;2023-03-14T01:31:59;0.97;;;0.30;;
66298;SDS011;53098;47.658;8.578;2023-03-14T01:34:24;0.40;;;0.17;;
66298;SDS011;53098;47.658;8.578;2023-03-14T01:36:49;0.23;;;0.23;;
66298;SDS011;53098;47.658;8.578;2023-03-14T01:39:15;0.10;;;0.10;;
66298;SDS011;53098;47.658;8.578;2023-03-14T01:41:40;2.77;;;0.40;;
66298;SDS011;53098;47.658;8.578;2023-03-14T01:44:08;0.90;;;0.20;;
66298;SDS011;53098;47.658;8.578;2023-03-14T01:46:38;0.17;;;0.17;;
66298;SDS011;53098;47.658;8.578;2023-03-14T01:51:53;0.32;;;0.10;;
66298;SDS011;53098;47.658;8.578;2023-03-14T01:54:28;0.10;;;0.10;;
66298;SDS011;53098;47.658;8.578;2023-03-14T01:59:27;0.85;;;0.32;;
66298;SDS011;53098;47.658;8.578;2023-03-14T02:01:54;0.17;;;0.13;;
66298;SDS011;53098;47.658;8.578;2023-03-14T02:04:20;0.75;;;0.20;;
66298;SDS011;53098;47.658;8.578;2023-03-14T02:07:00;0.28;;;0.20;;
66298;SDS011;53098;47.658;8.578;2023-03-14T02:09:28;0.15;;;0.15;;
66298;SDS011;53098;47.658;8.578;2023-03-14T02:11:53;0.60;;;0.60;;
66298;SDS011;53098;47.658;8.578;2023-03-14T02:14:22;0.20;;;0.20;;
66298;SDS011;53098;47.658;8.578;2023-03-14T02:16:50;1.17;;;0.20;;
66298;SDS011;53098;47.658;8.578;2023-03-14T02:19:15;0.10;;;0.10;;
66298;SDS011;53098;47.658;8.578;2023-03-14T02:24:23;0.22;;;0.22;;
66298;SDS011;53098;47.658;8.578;2023-03-14T02:27:05;0.13;;;0.13;;
66298;SDS011;53098;47.658;8.578;2023-03-14T02:29:30;0.10;;;0.10;;
66298;SDS011;53098;47.658;8.578;2023-03-14T02:31:56;0.63;;;0.20;;
66298;SDS011;53098;47.658;8.578;2023-03-14T02:34:22;1.80;;;0.10;;
66298;SDS011;53098;47.658;8.578;2023-03-14T02:36:47;0.25;;;0.25;;
66298;SDS011;53098;47.658;8.578;2023-03-14T02:39:35;0.17;;;0.17;;
66298;SDS011;53098;47.658;8.578;2023-03-14T02:42:00;1.17;;;0.15;;
66298;SDS011;53098;47.658;8.578;2023-03-14T02:44:27;0.65;;;0.20;;
66298;SDS011;53098;47.658;8.578;2023-03-14T02:46:52;0.55;;;0.17;;
66298;SDS011;53098;47.658;8.578;2023-03-14T02:49:17;0.03;;;0.03;;
66298;SDS011;53098;47.658;8.578;2023-03-14T02:51:43;0.10;;;0.10;;
66298;SDS011;53098;47.658;8.578;2023-03-14T02:54:09;1.00;;;0.20;;
66298;SDS011;53098;47.658;8.578;2023-03-14T02:56:34;0.30;;;0.30;;
66298;SDS011;53098;47.658;8.578;2023-03-14T02:59:02;0.77;;;0.30;;
66298;SDS011;53098;47.658;8.578;2023-03-14T03:01:27;0.13;;;0.13;;
66298;SDS011;53098;47.658;8.578;2023-03-14T03:03:53;0.73;;;0.23;;
66298;SDS011;53098;47.658;8.578;2023-03-14T03:06:18;0.63;;;0.20;;
66298;SDS011;53098;47.658;8.578;2023-03-14T03:08:43;0.43;;;0.10;;
66298;SDS011;53098;47.658;8.578;2023-03-14T03:11:09;0.85;;;0.13;;
66298;SDS011;53098;47.658;8.578;2023-03-14T03:13:34;1.10;;;0.20;;
66298;SDS011;53098;47.658;8.578;2023-03-14T03:15:59;0.20;;;0.20;;
66298;SDS011;53098;47.658;8.578;2023-03-14T03:18:25;1.70;;;0.40;;
66298;SDS011;53098;47.658;8.578;2023-03-14T03:20:50;0.20;;;0.20;;
66298;SDS011;53098;47.658;8.578;2023-03-14T03:23:15;0.23;;;0.20;;
66298;SDS011;53098;47.658;8.578;2023-03-14T03:25:41;0.22;;;0.22;;
66298;SDS011;53098;47.658;8.578;2023-03-14T03:28:06;0.30;;;0.20;;
66298;SDS011;53098;47.658;8.578;2023-03-14T03:30:31;0.30;;;0.25;;
66298;SDS011;53098;47.658;8.578;2023-03-14T03:32:57;0.33;;;0.13;;
66298;SDS011;53098;47.658;8.578;2023-03-14T03:35:22;0.40;;;0.20;;
66298;SDS011;53098;47.658;8.578;2023-03-14T03:37:47;2.43;;;0.20;;
66298;SDS011;53098;47.658;8.578;2023-03-14T03:40:12;0.57;;;0.17;;
66298;SDS011;53098;47.658;8.578;2023-03-14T03:42:38;0.20;;;0.17;;
66298;SDS011;53098;47.658;8.578;2023-03-14T03:45:03;1.13;;;0.30;;
66298;SDS011;53098;47.658;8.578;2023-03-14T03:47:29;1.08;;;0.20;;
66298;SDS011;53098;47.658;8.578;2023-03-14T03:49:55;0.30;;;0.30;;
66298;SDS011;53098;47.658;8.578;2023-03-14T03:52:20;0.50;;;0.30;;
66298;SDS011;53098;47.658;8.578;2023-03-14T03:54:46;0.13;;;0.10;;
66298;SDS011;53098;47.658;8.578;2023-03-14T03:57:11;1.70;;;0.10;;
66298;SDS011;53098;47.658;8.578;2023-03-14T03:59:36;0.20;;;0.20;;
66298;SDS011;53098;47.658;8.578;2023-03-14T04:02:01;1.00;;;0.27;;
66298;SDS011;53098;47.658;8.578;2023-03-14T04:04:27;0.30;;;0.30;;
66298;SDS011;53098;47.658;8.578;2023-03-14T04:06:52;0.10;;;0.10;;
66298;SDS011;53098;47.658;8.578;2023-03-14T04:09:17;0.10;;;0.10;;
66298;SDS011;53098;47.658;8.578;2023-03-14T04:11:42;0.10;;;0.10;;
66298;SDS011;53098;47.658;8.578;2023-03-14T04:14:08;0.30;;;0.20;;
66298;SDS011;53098;47.658;8.578;2023-03-14T04:16:33;2.20;;;0.37;;
66298;SDS011;53098;47.658;8.578;2023-03-14T04:18:59;0.10;;;0.10;;
66298;SDS011;53098;47.658;8.578;2023-03-14T04:21:24;0.63;;;0.30;;
66298;SDS011;53098;47.658;8.578;2023-03-14T04:23:49;0.20;;;0.20;;
66298;SDS011;53098;47.658;8.578;2023-03-14T04:26:15;0.10;;;0.10;;
66298;SDS011;53098;47.658;8.578;2023-03-14T04:28:40;0.20;;;0.13;;
66298;SDS011;53098;47.658;8.578;2023-03-14T04:31:10;3.72;;;0.32;;
66298;SDS011;53098;47.658;8.578;2023-03-14T04:33:35;0.30;;;0.20;;
66298;SDS011;53098;47.658;8.578;2023-03-14T04:36:00;0.20;;;0.20;;
66298;SDS011;53098;47.658;8.578;2023-03-14T04:38:25;3.20;;;0.23;;
66298;SDS011;53098;47.658;8.578;2023-03-14T04:40:51;0.50;;;0.30;;
66298;SDS011;53098;47.658;8.578;2023-03-14T04:43:16;1.02;;;0.20;;
66298;SDS011;53098;47.658;8.578;2023-03-14T04:45:42;1.50;;;0.13;;
66298;SDS011;53098;47.658;8.578;2023-03-14T04:48:07;0.30;;;0.27;;
66298;SDS011;53098;47.658;8.578;2023-03-14T04:50:32;0.20;;;0.20;;
66298;SDS011;53098;47.658;8.578;2023-03-14T04:52:58;1.30;;;0.20;;
66298;SDS011;53098;47.658;8.578;2023-03-14T04:55:23;0.40;;;0.20;;
66298;SDS011;53098;47.658;8.578;2023-03-14T04:57:48;0.63;;;0.20;;
66298;SDS011;53098;47.658;8.578;2023-03-14T05:00:13;0.57;;;0.50;;
66298;SDS011;53098;47.658;8.578;2023-03-14T05:02:39;0.20;;;0.20;;
66298;SDS011;53098;47.658;8.578;2023-03-14T05:05:04;0.80;;;0.33;;
66298;SDS011;53098;47.658;8.578;2023-03-14T05:07:29;0.38;;;0.20;;
66298;SDS011;53098;47.658;8.578;2023-03-14T05:09:55;0.30;;;0.20;;
66298;SDS011;53098;47.658;8.578;2023-03-14T05:12:20;1.20;;;0.30;;
66298;SDS011;53098;47.658;8.578;2023-03-14T05:14:46;1.15;;;0.30;;
66298;SDS011;53098;47.658;8.578;2023-03-14T05:17:11;0.10;;;0.10;;
66298;SDS011;53098;47.658;8.578;2023-03-14T05:19:37;0.50;;;0.30;;
66298;SDS011;53098;47.658;8.578;2023-03-14T05:22:02;0.13;;;0.13;;
66298;SDS011;53098;47.658;8.578;2023-03-14T05:24:27;0.45;;;0.20;;
66298;SDS011;53098;47.658;8.578;2023-03-14T05:26:53;0.33;;;0.30;;
66298;SDS011;53098;47.658;8.578;2023-03-14T05:29:18;0.70;;;0.20;;
66298;SDS011;53098;47.658;8.578;2023-03-14T05:31:43;0.20;;;0.20;;
66298;SDS011;53098;47.658;8.578;2023-03-14T05:34:08;0.50;;;0.20;;
66298;SDS011;53098;47.658;8.578;2023-03-14T05:36:34;0.30;;;0.20;;
66298;SDS011;53098;47.658;8.578;2023-03-14T05:38:59;0.87;;;0.20;;
66298;SDS011;53098;47.658;8.578;2023-03-14T05:41:24;0.33;;;0.30;;
66298;SDS011;53098;47.658;8.578;2023-03-14T05:43:50;0.50;;;0.20;;
66298;SDS011;53098;47.658;8.578;2023-03-14T05:46:16;0.50;;;0.30;;
66298;SDS011;53098;47.658;8.578;2023-03-14T05:48:41;0.63;;;0.37;;
66298;SDS011;53098;47.658;8.578;2023-03-14T05:51:06;0.50;;;0.30;;
66298;SDS011;53098;47.658;8.578;2023-03-14T05:53:31;0.52;;;0.35;;
66298;SDS011;53098;47.658;8.578;2023-03-14T05:55:57;0.20;;;0.20;;
66298;SDS011;53098;47.658;8.578;2023-03-14T05:58:22;0.20;;;0.20;;
66298;SDS011;53098;47.658;8.578;2023-03-14T06:00:48;0.98;;;0.30;;
66298;SDS011;53098;47.658;8.578;2023-03-14T06:03:13;0.95;;;0.50;;
66298;SDS011;53098;47.658;8.578;2023-03-14T06:05:38;0.20;;;0.20;;
66298;SDS011;53098;47.658;8.578;2023-03-14T06:08:04;1.53;;;0.50;;
66298;SDS011;53098;47.658;8.578;2023-03-14T06:10:29;0.87;;;0.23;;
66298;SDS011;53098;47.658;8.578;2023-03-14T06:12:54;1.07;;;0.33;;
66298;SDS011;53098;47.658;8.578;2023-03-14T06:15:19;1.13;;;0.30;;
66298;SDS011;53098;47.658;8.578;2023-03-14T06:17:45;0.30;;;0.20;;
66298;SDS011;53098;47.658;8.578;2023-03-14T06:20:10;2.37;;;0.80;;
66298;SDS011;53098;47.658;8.578;2023-03-14T06:22:36;2.15;;;0.60;;
66298;SDS011;53098;47.658;8.578;2023-03-14T06:25:01;2.00;;;0.40;;
66298;SDS011;53098;47.658;8.578;2023-03-14T06:27:26;1.60;;;0.30;;
66298;SDS011;53098;47.658;8.578;2023-03-14T06:29:52;1.55;;;0.40;;
66298;SDS011;53098;47.658;8.578;2023-03-14T06:32:17;1.90;;;0.60;;
66298;SDS011;53098;47.658;8.578;2023-03-14T06:34:42;1.57;;;0.70;;
66298;SDS011;53098;47.658;8.578;2023-03-14T06:37:08;1.83;;;0.60;;
66298;SDS011;53098;47.658;8.578;2023-03-14T06:39:33;1.80;;;0.70;;
66298;SDS011;53098;47.658;8.578;2023-03-14T06:41:58;3.10;;;0.77;;
66298;SDS011;53098;47.658;8.578;2023-03-14T06:44:24;0.83;;;0.40;;
66298;SDS011;53098;47.658;8.578;2023-03-14T06:46:49;1.73;;;0.40;;
66298;SDS011;53098;47.658;8.578;2023-03-14T06:49:14;1.50;;;0.20;;
66298;SDS011;53098;47.658;8.578;2023-03-14T06:51:39;0.53;;;0.37;;
66298;SDS011;53098;47.658;8.578;2023-03-14T06:54:05;1.00;;;0.30;;
66298;SDS011;53098;47.658;8.578;2023-03-14T06:56:30;0.20;;;0.20;;
66298;SDS011;53098;47.658;8.578;2023-03-14T06:58:55;1.10;;;0.50;;
66298;SDS011;53098;47.658;8.578;2023-03-14T07:01:22;1.50;;;0.50;;
66298;SDS011;53098;47.658;8.578;2023-03-14T07:03:48;1.85;;;0.40;;
66298;SDS011;53098;47.658;8.578;2023-03-14T07:06:13;2.10;;;0.80;;
66298;SDS011;53098;47.658;8.578;2023-03-14T07:08:39;0.95;;;0.43;;
66298;SDS011;53098;47.658;8.578;2023-03-14T07:11:04;2.03;;;0.45;;
66298;SDS011;53098;47.658;8.578;2023-03-14T07:13:30;0.95;;;0.38;;
66298;SDS011;53098;47.658;8.578;2023-03-14T07:15:55;1.00;;;0.38;;
66298;SDS011;53098;47.658;8.578;2023-03-14T07:18:20;0.73;;;0.40;;
66298;SDS011;53098;47.658;8.578;2023-03-14T07:20:46;0.80;;;0.50;;
66298;SDS011;53098;47.658;8.578;2023-03-14T07:23:11;0.93;;;0.50;;
66298;SDS011;53098;47.658;8.578;2023-03-14T07:25:36;0.93;;;0.30;;
66298;SDS011;53098;47.658;8.578;2023-03-14T07:28:02;1.60;;;0.50;;
66298;SDS011;53098;47.658;8.578;2023-03-14T07:30:27;2.97;;;1.08;;
66298;SDS011;53098;47.658;8.578;2023-03-14T07:32:53;4.05;;;1.25;;
66298;SDS011;53098;47.658;8.578;2023-03-14T07:35:18;2.07;;;0.70;;
66298;SDS011;53098;47.658;8.578;2023-03-14T07:37:43;1.77;;;0.68;;
66298;SDS011;53098;47.658;8.578;2023-03-14T07:40:09;2.67;;;1.10;;
66298;SDS011;53098;47.658;8.578;2023-03-14T07:42:34;2.58;;;0.88;;
66298;SDS011;53098;47.658;8.578;2023-03-14T07:44:59;1.77;;;0.70;;
66298;SDS011;53098;47.658;8.578;2023-03-14T07:47:25;0.77;;;0.40;;
66298;SDS011;53098;47.658;8.578;2023-03-14T07:49:50;2.20;;;0.60;;
66298;SDS011;53098;47.658;8.578;2023-03-14T07:52:15;5.00;;;0.87;;
66298;SDS011;53098;47.658;8.578;2023-03-14T07:54:40;1.13;;;0.40;;
66298;SDS011;53098;47.658;8.578;2023-03-14T07:57:06;2.13;;;0.70;;
66298;SDS011;53098;47.658;8.578;2023-03-14T07:59:31;1.70;;;0.30;;
66298;SDS011;53098;47.658;8.578;2023-03-14T08:01:56;2.63;;;0.33;;
66298;SDS011;53098;47.658;8.578;2023-03-14T08:04:21;0.70;;;0.30;;
66298;SDS011;53098;47.658;8.578;2023-03-14T08:06:47;2.17;;;0.60;;
66298;SDS011;53098;47.658;8.578;2023-03-14T08:09:12;1.52;;;0.57;;
66298;SDS011;53098;47.658;8.578;2023-03-14T08:11:37;2.58;;;1.05;;
66298;SDS011;53098;47.658;8.578;2023-03-14T08:14:03;2.67;;;1.00;;
66298;SDS011;53098;47.658;8.578;2023-03-14T08:16:28;1.97;;;0.60;;
66298;SDS011;53098;47.658;8.578;2023-03-14T08:18:53;0.93;;;0.60;;
66298;SDS011;53098;47.658;8.578;2023-03-14T08:21:19;1.00;;;0.37;;
66298;SDS011;53098;47.658;8.578;2023-03-14T08:23:44;0.60;;;0.47;;
66298;SDS011;53098;47.658;8.578;2023-03-14T08:26:09;0.55;;;0.43;;
66298;SDS011;53098;47.658;8.578;2023-03-14T08:28:35;1.13;;;0.30;;
66298;SDS011;53098;47.658;8.578;2023-03-14T08:31:00;1.15;;;0.43;;
66298;SDS011;53098;47.658;8.578;2023-03-14T08:33:26;1.05;;;0.30;;
66298;SDS011;53098;47.658;8.578;2023-03-14T08:35:52;6.13;;;0.52;;
66298;SDS011;53098;47.658;8.578;2023-03-14T08:38:18;2.47;;;0.40;;
66298;SDS011;53098;47.658;8.578;2023-03-14T08:40:43;0.73;;;0.30;;
66298;SDS011;53098;47.658;8.578;2023-03-14T08:43:08;1.07;;;0.40;;
66298;SDS011;53098;47.658;8.578;2023-03-14T08:45:34;2.72;;;0.40;;
66298;SDS011;53098;47.658;8.578;2023-03-14T08:47:59;1.00;;;0.57;;
66298;SDS011;53098;47.658;8.578;2023-03-14T08:50:24;3.93;;;0.77;;
66298;SDS011;53098;47.658;8.578;2023-03-14T08:52:50;2.50;;;0.38;;
66298;SDS011;53098;47.658;8.578;2023-03-14T08:55:15;0.87;;;0.40;;
66298;SDS011;53098;47.658;8.578;2023-03-14T08:57:40;6.43;;;0.50;;
66298;SDS011;53098;47.658;8.578;2023-03-14T09:00:06;3.10;;;1.20;;
66298;SDS011;53098;47.658;8.578;2023-03-14T09:02:32;1.40;;;0.70;;
66298;SDS011;53098;47.658;8.578;2023-03-14T09:04:57;1.50;;;0.60;;
66298;SDS011;53098;47.658;8.578;2023-03-14T09:07:22;1.63;;;0.50;;
66298;SDS011;53098;47.658;8.578;2023-03-14T09:09:47;0.43;;;0.30;;
66298;SDS011;53098;47.658;8.578;2023-03-14T09:12:13;0.60;;;0.50;;
66298;SDS011;53098;47.658;8.578;2023-03-14T09:14:38;4.13;;;0.30;;
66298;SDS011;53098;47.658;8.578;2023-03-14T09:17:04;0.00;;;0.00;;
66298;SDS011;53098;47.658;8.578;2023-03-14T09:19:29;0.22;;;0.22;;
66298;SDS011;53098;47.658;8.578;2023-03-14T09:21:54;0.77;;;0.52;;
66298;SDS011;53098;47.658;8.578;2023-03-14T09:24:20;0.40;;;0.30;;
66298;SDS011;53098;47.658;8.578;2023-03-14T09:26:45;0.55;;;0.40;;
66298;SDS011;53098;47.658;8.578;2023-03-14T09:29:10;2.23;;;0.30;;
66298;SDS011;53098;47.658;8.578;2023-03-14T09:31:36;0.50;;;0.20;;
66298;SDS011;53098;47.658;8.578;2023-03-14T09:34:01;0.50;;;0.20;;
66298;SDS011;53098;47.658;8.578;2023-03-14T09:36:26;0.23;;;0.17;;
66298;SDS011;53098;47.658;8.578;2023-03-14T09:38:52;0.55;;;0.28;;
66298;SDS011;53098;47.658;8.578;2023-03-14T09:41:18;0.70;;;0.40;;
66298;SDS011;53098;47.658;8.578;2023-03-14T09:43:46;0.50;;;0.20;;
66298;SDS011;53098;47.658;8.578;2023-03-14T09:46:11;0.75;;;0.40;;
66298;SDS011;53098;47.658;8.578;2023-03-14T09:48:37;0.38;;;0.38;;
66298;SDS011;53098;47.658;8.578;2023-03-14T09:51:05;0.98;;;0.10;;
66298;SDS011;53098;47.658;8.578;2023-03-14T09:53:39;0.40;;;0.22;;
66298;SDS011;53098;47.658;8.578;2023-03-14T09:56:07;0.10;;;0.10;;
66298;SDS011;53098;47.658;8.578;2023-03-14T09:58:33;0.20;;;0.20;;
66298;SDS011;53098;47.658;8.578;2023-03-14T10:01:00;1.05;;;0.80;;
66298;SDS011;53098;47.658;8.578;2023-03-14T10:03:26;0.15;;;0.15;;
66298;SDS011;53098;47.658;8.578;2023-03-14T10:05:53;0.10;;;0.10;;
66298;SDS011;53098;47.658;8.578;2023-03-14T10:08:20;0.77;;;0.25;;
66298;SDS011;53098;47.658;8.578;2023-03-14T10:10:45;0.20;;;0.20;;
66298;SDS011;53098;47.658;8.578;2023-03-14T10:15:35;3.40;;;0.23;;
66298;SDS011;53098;47.658;8.578;2023-03-14T10:18:02;0.55;;;0.30;;
66298;SDS011;53098;47.658;8.578;2023-03-14T10:22:53;0.43;;;0.30;;
66298;SDS011;53098;47.658;8.578;2023-03-14T10:25:26;0.70;;;0.50;;
66298;SDS011;53098;47.658;8.578;2023-03-14T10:27:51;2.17;;;0.40;;
66298;SDS011;53098;47.658;8.578;2023-03-14T10:30:30;0.57;;;0.20;;
66298;SDS011;53098;47.658;8.578;2023-03-14T10:32:55;0.35;;;0.30;;
66298;SDS011;53098;47.658;8.578;2023-03-14T10:35:21;0.27;;;0.20;;
66298;SDS011;53098;47.658;8.578;2023-03-14T10:37:55;0.55;;;0.20;;
66298;SDS011;53098;47.658;8.578;2023-03-14T10:40:24;0.10;;;0.10;;
66298;SDS011;53098;47.658;8.578;2023-03-14T10:42:51;2.03;;;0.50;;
66298;SDS011;53098;47.658;8.578;2023-03-14T10:47:48;0.10;;;0.10;;
66298;SDS011;53098;47.658;8.578;2023-03-14T10:52:48;0.10;;;0.10;;
66298;SDS011;53098;47.658;8.578;2023-03-14T10:55:13;0.30;;;0.30;;
66298;SDS011;53098;47.658;8.578;2023-03-14T10:57:39;0.60;;;0.50;;
66298;SDS011;53098;47.658;8.578;2023-03-14T11:00:05;0.60;;;0.15;;
66298;SDS011;53098;47.658;8.578;2023-03-14T11:07:36;1.85;;;0.30;;
66298;SDS011;53098;47.658;8.578;2023-03-14T11:23:22;0.52;;;0.20;;
66298;SDS011;53098;47.658;8.578;2023-03-14T11:25:54;0.82;;;0.50;;
66298;SDS011;53098;47.658;8.578;2023-03-14T11:28:29;0.43;;;0.30;;
66298;SDS011;53098;47.658;8.578;2023-03-14T11:31:04;0.20;;;0.20;;
66298;SDS011;53098;47.658;8.578;2023-03-14T11:33:37;2.72;;;0.30;;
66298;SDS011;53098;47.658;8.578;2023-03-14T11:36:04;0.25;;;0.20;;
66298;SDS011;53098;47.658;8.578;2023-03-14T11:40:59;0.47;;;0.30;;
66298;SDS011;53098;47.658;8.578;2023-03-14T11:43:40;0.40;;;0.28;;
66298;SDS011;53098;47.658;8.578;2023-03-14T11:51:04;0.85;;;0.28;;
66298;SDS011;53098;47.658;8.578;2023-03-14T11:53:49;0.20;;;0.20;;
66298;SDS011;53098;47.658;8.578;2023-03-14T11:56:18;0.93;;;0.65;;
66298;SDS011;53098;47.658;8.578;2023-03-14T11:58:55;0.55;;;0.20;;
66298;SDS011;53098;47.658;8.578;2023-03-14T12:04:05;1.57;;;0.37;;
66298;SDS011;53098;47.658;8.578;2023-03-14T12:06:37;3.20;;;0.28;;
66298;SDS011;53098;47.658;8.578;2023-03-14T12:09:03;0.77;;;0.30;;
66298;SDS011;53098;47.658;8.578;2023-03-14T12:11:34;2.45;;;0.30;;
66298;SDS011;53098;47.658;8.578;2023-03-14T12:14:00;2.55;;;0.30;;
66298;SDS011;53098;47.658;8.578;2023-03-14T12:16:36;0.10;;;0.10;;
66298;SDS011;53098;47.658;8.578;2023-03-14T12:19:44;0.28;;;0.28;;
66298;SDS011;53098;47.658;8.578;2023-03-14T12:21:54;1.27;;;0.30;;
66298;SDS011;53098;47.658;8.578;2023-03-14T12:24:23;0.52;;;0.20;;
66298;SDS011;53098;47.658;8.578;2023-03-14T12:26:52;1.15;;;0.43;;
66298;SDS011;53098;47.658;8.578;2023-03-14T12:29:18;0.60;;;0.45;;
66298;SDS011;53098;47.658;8.578;2023-03-14T12:39:31;4.22;;;0.70;;
66298;SDS011;53098;47.658;8.578;2023-03-14T12:47:14;0.98;;;0.52;;
66298;SDS011;53098;47.658;8.578;2023-03-14T12:49:46;2.50;;;0.80;;
66298;SDS011;53098;47.658;8.578;2023-03-14T12:52:16;1.77;;;0.80;;
66298;SDS011;53098;47.658;8.578;2023-03-14T13:02:20;2.80;;;0.80;;
66298;SDS011;53098;47.658;8.578;2023-03-14T13:04:48;2.92;;;0.82;;
66298;SDS011;53098;47.658;8.578;2023-03-14T13:07:31;3.28;;;0.93;;
66298;SDS011;53098;47.658;8.578;2023-03-14T13:12:27;3.45;;;0.88;;
66298;SDS011;53098;47.658;8.578;2023-03-14T13:14:53;2.60;;;0.90;;
66298;SDS011;53098;47.658;8.578;2023-03-14T13:17:32;2.58;;;1.20;;
66298;SDS011;53098;47.658;8.578;2023-03-14T13:19:59;1.30;;;0.70;;
66298;SDS011;53098;47.658;8.578;2023-03-14T13:22:26;2.50;;;0.60;;
66298;SDS011;53098;47.658;8.578;2023-03-14T13:25:02;0.55;;;0.40;;
66298;SDS011;53098;47.658;8.578;2023-03-14T13:27:29;1.83;;;0.50;;
66298;SDS011;53098;47.658;8.578;2023-03-14T13:29:55;1.70;;;0.90;;
66298;SDS011;53098;47.658;8.578;2023-03-14T13:32:21;3.03;;;0.67;;
66298;SDS011;53098;47.658;8.578;2023-03-14T13:34:46;2.28;;;0.90;;
66298;SDS011;53098;47.658;8.578;2023-03-14T13:37:16;1.40;;;0.55;;
66298;SDS011;53098;47.658;8.578;2023-03-14T13:39:41;1.38;;;0.60;;
66298;SDS011;53098;47.658;8.578;2023-03-14T13:42:10;1.90;;;0.50;;
66298;SDS011;53098;47.658;8.578;2023-03-14T13:44:38;3.13;;;0.68;;
66298;SDS011;53098;47.658;8.578;2023-03-14T13:47:04;1.98;;;0.60;;
66298;SDS011;53098;47.658;8.578;2023-03-14T13:49:30;2.70;;;0.85;;
66298;SDS011;53098;47.658;8.578;2023-03-14T13:51:57;3.03;;;0.90;;
66298;SDS011;53098;47.658;8.578;2023-03-14T13:54:22;1.88;;;0.55;;
66298;SDS011;53098;47.658;8.578;2023-03-14T13:56:48;2.50;;;0.70;;
66298;SDS011;53098;47.658;8.578;2023-03-14T13:59:26;2.97;;;0.73;;
66298;SDS011;53098;47.658;8.578;2023-03-14T14:01:53;3.30;;;0.75;;
66298;SDS011;53098;47.658;8.578;2023-03-14T14:04:18;3.97;;;0.73;;
66298;SDS011;53098;47.658;8.578;2023-03-14T14:06:45;1.95;;;0.65;;
66298;SDS011;53098;47.658;8.578;2023-03-14T14:09:15;3.50;;;0.77;;
66298;SDS011;53098;47.658;8.578;2023-03-14T14:14:08;4.47;;;0.60;;
66298;SDS011;53098;47.658;8.578;2023-03-14T14:16:35;4.70;;;0.90;;
66298;SDS011;53098;47.658;8.578;2023-03-14T14:19:00;2.40;;;0.70;;
66298;SDS011;53098;47.658;8.578;2023-03-14T14:21:26;3.78;;;0.63;;
66298;SDS011;53098;47.658;8.578;2023-03-14T14:23:52;3.22;;;0.95;;
66298;SDS011;53098;47.658;8.578;2023-03-14T14:26:18;3.47;;;0.70;;
66298;SDS011;53098;47.658;8.578;2023-03-14T14:28:44;5.57;;;0.73;;
66298;SDS011;53098;47.658;8.578;2023-03-14T14:33:39;4.45;;;0.63;;
66298;SDS011;53098;47.658;8.578;2023-03-14T14:36:05;2.45;;;0.60;;
66298;SDS011;53098;47.658;8.578;2023-03-14T14:38:37;7.45;;;0.63;;
66298;SDS011;53098;47.658;8.578;2023-03-14T14:41:02;4.67;;;0.87;;
66298;SDS011;53098;47.658;8.578;2023-03-14T14:43:28;2.90;;;0.82;;
66298;SDS011;53098;47.658;8.578;2023-03-14T14:45:55;6.47;;;1.20;;
66298;SDS011;53098;47.658;8.578;2023-03-14T14:48:25;3.45;;;0.63;;
66298;SDS011;53098;47.658;8.578;2023-03-14T14:50:55;5.93;;;1.10;;
66298;SDS011;53098;47.658;8.578;2023-03-14T14:53:23;2.30;;;0.80;;
66298;SDS011;53098;47.658;8.578;2023-03-14T14:55:52;5.18;;;0.80;;
66298;SDS011;53098;47.658;8.578;2023-03-14T15:01:37;3.67;;;0.75;;
66298;SDS011;53098;47.658;8.578;2023-03-14T15:03:37;4.20;;;0.90;;
66298;SDS011;53098;47.658;8.578;2023-03-14T15:06:03;4.28;;;0.82;;
66298;SDS011;53098;47.658;8.578;2023-03-14T15:08:28;4.13;;;0.73;;
66298;SDS011;53098;47.658;8.578;2023-03-14T15:10:54;4.57;;;0.87;;
66298;SDS011;53098;47.658;8.578;2023-03-14T15:13:20;4.93;;;1.02;;
66298;SDS011;53098;47.658;8.578;2023-03-14T15:15:45;4.03;;;1.13;;
66298;SDS011;53098;47.658;8.578;2023-03-14T15:18:15;5.22;;;0.90;;
66298;SDS011;53098;47.658;8.578;2023-03-14T15:20:41;9.02;;;1.05;;
66298;SDS011;53098;47.658;8.578;2023-03-14T15:23:14;3.60;;;0.90;;
66298;SDS011;53098;47.658;8.578;2023-03-14T15:25:40;3.40;;;0.90;;
66298;SDS011;53098;47.658;8.578;2023-03-14T15:28:11;6.82;;;1.13;;
66298;SDS011;53098;47.658;8.578;2023-03-14T15:30:38;6.20;;;1.05;;
66298;SDS011;53098;47.658;8.578;2023-03-14T15:33:04;4.50;;;0.77;;
66298;SDS011;53098;47.658;8.578;2023-03-14T15:35:29;3.77;;;0.80;;
66298;SDS011;53098;47.658;8.578;2023-03-14T15:37:54;5.33;;;0.80;;
66298;SDS011;53098;47.658;8.578;2023-03-14T15:40:19;3.33;;;0.87;;
66298;SDS011;53098;47.658;8.578;2023-03-14T15:42:47;3.47;;;0.98;;
66298;SDS011;53098;47.658;8.578;2023-03-14T15:45:12;3.90;;;0.80;;
66298;SDS011;53098;47.658;8.578;2023-03-14T15:47:37;3.37;;;0.70;;
66298;SDS011;53098;47.658;8.578;2023-03-14T15:50:03;4.80;;;0.87;;
66298;SDS011;53098;47.658;8.578;2023-03-14T15:52:28;4.40;;;0.93;;
66298;SDS011;53098;47.658;8.578;2023-03-14T15:54:54;4.13;;;1.08;;
66298;SDS011;53098;47.658;8.578;2023-03-14T15:57:19;4.50;;;1.00;;
66298;SDS011;53098;47.658;8.578;2023-03-14T15:59:44;6.27;;;1.40;;
66298;SDS011;53098;47.658;8.578;2023-03-14T16:02:10;5.43;;;1.20;;